Time;durP1;ratioP1;P1;durP2;ratioP2;P2;SDS_P1;SDS_P2;PMS_P1;PMS_P2;Temp;Humidity;BMP_temperature;BMP_pressure;BME280_temperature;BME280_humidity;BME280_pressure;Samples;Min_cycle;Max_cycle;Signal;HPM_P1;HPM_P2
2021/08/05 04:38:46;;;;;;;7.32;5.15;;;;;;;14.85;78.06;99553.91;5006696;28;106061;-63
2021/08/05 04:41:12;;;;;;;7.65;4.95;;;;;;;14.94;77.98;99556.34;5010129;28;106046;-64
2021/08/05 04:43:37;;;;;;;12.23;5.78;;;;;;;15.04;78.45;99554.03;5004026;28;105927;-63
2021/08/05 04:46:02;;;;;;;10.20;5.50;;;;;;;15.11;78.21;99552.13;5004767;28;106029;-64
2021/08/05 04:48:28;;;;;;;9.57;6.80;;;;;;;15.23;78.71;99544.22;5005149;28;105991;-64
2021/08/05 04:50:54;;;;;;;10.93;6.50;;;;;;;15.35;78.60;99545.16;5005774;28;105933;-63
2021/08/05 04:53:19;;;;;;;13.18;6.63;;;;;;;15.47;78.17;99553.31;5005766;28;106140;-63
2021/08/05 04:55:45;;;;;;;7.63;5.72;;;;;;;15.59;78.26;99544.56;5004541;28;106029;-63
2021/08/05 04:58:11;;;;;;;7.07;5.38;;;;;;;15.70;77.98;99550.03;5005116;28;105991;-64
2021/08/05 05:00:41;;;;;;;8.15;5.57;;;;;;;15.79;78.19;99547.06;5005733;28;106086;-64
2021/08/05 05:03:08;;;;;;;8.32;5.65;;;;;;;15.84;77.71;99550.81;5005224;28;105854;-63
2021/08/05 05:05:34;;;;;;;7.93;5.57;;;;;;;15.93;77.97;99545.16;5004830;28;106592;-63
2021/08/05 05:08:22;;;;;;;9.02;5.57;;;;;;;15.99;77.64;99536.19;5004388;28;106668;-63
2021/08/05 05:10:50;;;;;;;9.10;5.43;;;;;;;16.06;77.42;99545.00;5005597;28;105767;-63
2021/08/05 05:13:16;;;;;;;10.50;5.13;;;;;;;16.10;77.23;99545.38;5005080;28;105698;-63
2021/08/05 05:15:42;;;;;;;7.18;4.97;;;;;;;16.15;77.56;99538.28;5004352;28;106023;-64
2021/08/05 05:18:08;;;;;;;8.23;5.07;;;;;;;16.21;77.55;99541.94;5003685;28;106463;-64
2021/08/05 05:20:35;;;;;;;11.27;5.55;;;;;;;16.25;77.11;99548.50;5005389;28;105870;-64
2021/08/05 05:23:01;;;;;;;10.25;6.68;;;;;;;16.23;76.90;99540.69;5005049;28;105841;-64
2021/08/05 05:25:27;;;;;;;7.70;5.50;;;;;;;16.29;77.11;99543.53;5004912;28;106383;-64
2021/08/05 05:27:53;;;;;;;9.13;4.82;;;;;;;16.32;77.05;99540.38;5004710;28;105893;-64
2021/08/05 05:30:18;;;;;;;7.18;5.60;;;;;;;16.35;77.13;99534.59;5005566;28;106083;-64
2021/08/05 05:32:46;;;;;;;9.35;5.65;;;;;;;16.39;76.74;99543.84;5003113;28;105974;-64
2021/08/05 05:35:12;;;;;;;10.05;6.40;;;;;;;16.42;76.73;99535.31;5004636;28;106599;-64
2021/08/05 05:37:38;;;;;;;9.25;5.47;;;;;;;16.48;76.65;99537.09;5003475;28;106892;-64
2021/08/05 05:40:04;;;;;;;6.70;5.45;;;;;;;16.51;76.32;99531.28;5005675;28;106046;-64
2021/08/05 05:42:30;;;;;;;7.07;5.60;;;;;;;16.58;76.52;99539.28;5003833;28;106237;-65
2021/08/05 05:44:56;;;;;;;8.57;5.93;;;;;;;16.63;76.49;99527.84;5004302;28;106071;-64
2021/08/05 05:47:21;;;;;;;9.43;5.72;;;;;;;16.68;76.34;99533.34;5004320;28;106015;-64
2021/08/05 05:49:47;;;;;;;7.70;6.05;;;;;;;16.72;76.23;99531.84;4993940;28;106415;-64
2021/08/05 05:52:13;;;;;;;7.63;5.97;;;;;;;16.78;76.36;99524.75;4991470;28;106020;-64
2021/08/05 05:54:39;;;;;;;7.57;5.57;;;;;;;16.82;75.98;99523.25;4991047;28;105810;-65
2021/08/05 05:57:04;;;;;;;8.85;5.75;;;;;;;16.88;76.02;99520.47;4990579;28;105969;-65
2021/08/05 05:59:29;;;;;;;7.85;5.80;;;;;;;16.97;76.00;99529.06;4990661;28;106082;-64
2021/08/05 06:01:55;;;;;;;9.23;5.90;;;;;;;17.06;76.06;99527.69;4991019;28;106272;-65
2021/08/05 06:04:20;;;;;;;10.40;5.93;;;;;;;17.15;75.91;99528.16;4990726;28;105875;-65
2021/08/05 06:06:46;;;;;;;8.93;5.90;;;;;;;17.25;75.72;99522.25;4990824;28;105755;-65
2021/08/05 06:09:12;;;;;;;8.05;6.28;;;;;;;17.36;75.68;99520.59;4991523;28;105811;-65
2021/08/05 06:11:37;;;;;;;10.13;6.80;;;;;;;17.49;75.56;99524.97;4990860;28;107185;-65
2021/08/05 06:14:02;;;;;;;9.20;6.20;;;;;;;17.60;75.53;99532.25;4990633;28;106071;-65
2021/08/05 06:16:28;;;;;;;10.57;6.30;;;;;;;17.68;74.95;99523.81;4990490;28;106161;-65
2021/08/05 06:18:53;;;;;;;11.25;6.68;;;;;;;17.79;75.12;99527.56;4991301;28;106133;-65
2021/08/05 06:21:19;;;;;;;8.02;6.10;;;;;;;17.90;74.93;99521.34;4990722;28;106060;-65
2021/08/05 06:23:44;;;;;;;7.47;6.07;;;;;;;18.02;74.95;99520.59;4990579;28;106072;-64
2021/08/05 06:26:10;;;;;;;10.38;6.38;;;;;;;18.14;74.74;99521.38;4990742;28;106292;-64
2021/08/05 06:28:36;;;;;;;6.90;5.80;;;;;;;18.22;74.29;99523.72;4990915;28;105840;-64
2021/08/05 06:31:01;;;;;;;7.88;5.78;;;;;;;18.24;74.21;99521.59;4990741;28;106225;-65
2021/08/05 06:33:27;;;;;;;8.50;5.90;;;;;;;18.35;74.22;99527.22;4990339;28;106573;-66
2021/08/05 06:35:52;;;;;;;9.15;6.05;;;;;;;18.36;73.78;99526.97;4990345;28;105973;-64
2021/08/05 06:38:18;;;;;;;9.75;5.90;;;;;;;18.40;73.85;99533.53;4990787;28;106279;-65
2021/08/05 06:40:44;;;;;;;6.72;5.68;;;;;;;18.44;73.82;99531.19;4990560;28;106106;-65
2021/08/05 06:43:09;;;;;;;11.18;6.82;;;;;;;18.52;73.84;99530.81;4990048;28;106364;-65
2021/08/05 06:45:35;;;;;;;10.07;6.82;;;;;;;18.59;73.62;99536.88;4990268;28;105877;-64
2021/08/05 06:48:00;;;;;;;10.13;6.60;;;;;;;18.60;73.34;99529.59;4991146;28;105805;-64
2021/08/05 06:50:26;;;;;;;8.88;7.18;;;;;;;18.63;73.40;99533.69;4990653;28;106244;-64
2021/08/05 06:52:51;;;;;;;9.68;7.32;;;;;;;18.63;73.12;99534.53;4990432;28;106257;-65
2021/08/05 06:55:17;;;;;;;10.13;7.82;;;;;;;18.64;72.89;99535.34;4990065;28;106087;-64
2021/08/05 06:57:42;;;;;;;12.85;7.63;;;;;;;18.65;73.09;99531.59;4990956;28;105956;-65
2021/08/05 07:00:08;;;;;;;10.45;7.82;;;;;;;18.67;73.07;99534.84;4989599;28;106214;-66
2021/08/05 07:02:34;;;;;;;13.02;7.63;;;;;;;18.69;72.92;99533.56;4989926;28;106383;-65
2021/08/05 07:05:02;;;;;;;11.60;8.57;;;;;;;18.76;72.98;99528.03;4990051;28;105959;-65
2021/08/05 07:07:29;;;;;;;9.85;7.75;;;;;;;18.77;72.83;99525.09;4990576;28;106044;-64
2021/08/05 07:09:58;;;;;;;12.68;8.63;;;;;;;18.80;72.88;99523.78;4989740;28;106175;-64
2021/08/05 07:12:24;;;;;;;14.02;8.32;;;;;;;18.80;72.67;99521.09;4988969;28;106184;-64
2021/08/05 07:14:49;;;;;;;10.70;8.75;;;;;;;18.76;72.40;99522.63;4989313;28;105871;-64
2021/08/05 07:17:15;;;;;;;15.05;8.70;;;;;;;18.77;72.83;99524.28;4989761;28;106203;-64
2021/08/05 07:19:41;;;;;;;15.85;9.90;;;;;;;18.77;72.63;99525.09;4989532;28;106193;-64
2021/08/05 07:22:07;;;;;;;12.48;9.48;;;;;;;18.75;72.50;99524.53;4989122;28;106504;-64
2021/08/05 07:24:33;;;;;;;11.65;10.23;;;;;;;18.77;72.78;99525.09;4989488;28;106052;-64
2021/08/05 07:26:58;;;;;;;12.93;10.15;;;;;;;18.79;72.66;99527.53;4989445;28;105960;-64
2021/08/05 07:29:23;;;;;;;14.32;9.70;;;;;;;18.78;72.60;99517.78;4989191;28;106153;-63
2021/08/05 07:31:49;;;;;;;12.55;10.23;;;;;;;18.80;72.80;99518.38;4989106;28;106920;-64
2021/08/05 07:34:14;;;;;;;14.48;10.73;;;;;;;18.87;72.80;99527.16;4988799;28;105818;-64
2021/08/05 07:36:39;;;;;;;12.35;10.35;;;;;;;18.90;72.62;99520.47;4988981;28;105851;-65
2021/08/05 07:39:10;;;;;;;14.15;10.30;;;;;;;18.94;72.52;99524.34;4988712;28;105877;-65
2021/08/05 07:41:36;;;;;;;12.95;10.52;;;;;;;19.06;73.09;99522.41;4987971;28;106822;-65
2021/08/05 07:44:01;;;;;;;14.85;11.75;;;;;;;19.20;72.79;99522.09;4988474;28;106326;-64
2021/08/05 07:46:26;;;;;;;13.55;12.15;;;;;;;19.31;72.51;99518.50;4989421;28;106018;-64
2021/08/05 07:48:52;;;;;;;13.00;11.18;;;;;;;19.39;72.05;99512.69;4988350;28;106150;-65
2021/08/05 07:51:17;;;;;;;14.88;11.23;;;;;;;19.48;71.97;99515.81;4988473;28;106387;-64
2021/08/05 07:53:43;;;;;;;14.95;11.73;;;;;;;19.60;72.14;99513.03;4988646;28;106044;-64
2021/08/05 07:56:08;;;;;;;14.90;11.77;;;;;;;19.76;72.28;99514.88;4989276;28;105938;-64
2021/08/05 07:58:33;;;;;;;12.50;11.30;;;;;;;19.86;71.90;99510.75;4988753;28;106157;-65
2021/08/05 08:00:59;;;;;;;15.35;11.93;;;;;;;19.94;71.69;99508.44;4988565;28;106040;-64
2021/08/05 08:03:24;;;;;;;15.27;11.70;;;;;;;20.02;71.40;99503.69;4988451;28;106070;-66
2021/08/05 08:05:49;;;;;;;14.05;11.02;;;;;;;20.15;71.59;99499.78;4989065;28;106163;-65
2021/08/05 08:08:16;;;;;;;12.95;11.63;;;;;;;20.24;71.35;99504.53;4988451;28;106192;-65
2021/08/05 08:10:42;;;;;;;22.05;17.13;;;;;;;20.29;70.89;99504.56;4987537;28;106042;-66
2021/08/05 08:13:08;;;;;;;15.82;12.55;;;;;;;20.33;70.88;99507.59;4987644;28;105873;-66
2021/08/05 08:15:33;;;;;;;13.60;11.68;;;;;;;20.35;70.49;99499.22;4988606;28;105690;-64
2021/08/05 08:17:58;;;;;;;12.40;11.20;;;;;;;20.42;70.36;99497.97;4987388;28;106034;-65
2021/08/05 08:20:24;;;;;;;13.45;11.65;;;;;;;20.53;70.40;99504.31;4985502;28;107163;-64
2021/08/05 08:22:49;;;;;;;11.05;9.90;;;;;;;20.67;70.04;99493.09;4985730;28;106327;-64
2021/08/05 08:25:15;;;;;;;11.50;10.30;;;;;;;20.80;70.24;99498.13;4986959;28;106014;-65
2021/08/05 08:27:42;;;;;;;11.48;10.27;;;;;;;20.86;69.65;99499.84;4985831;28;106015;-65
2021/08/05 08:30:10;;;;;;;13.40;10.75;;;;;;;20.96;69.43;99505.34;4985516;28;106034;-65
2021/08/05 08:32:36;;;;;;;11.05;9.98;;;;;;;20.98;69.07;99498.84;4985498;28;106330;-65
2021/08/05 08:35:02;;;;;;;11.63;10.43;;;;;;;21.04;68.78;99505.97;4988516;28;105822;-64
2021/08/05 08:37:28;;;;;;;11.13;9.77;;;;;;;21.04;68.30;99505.97;4986972;28;106166;-68
2021/08/05 08:39:53;;;;;;;12.82;10.90;;;;;;;20.99;68.06;99504.00;4988345;28;106870;-64
2021/08/05 08:42:18;;;;;;;12.60;10.13;;;;;;;21.02;68.18;99500.78;4987258;28;106602;-64
2021/08/05 08:44:44;;;;;;;11.65;10.45;;;;;;;21.06;67.66;99509.22;4988604;28;106159;-65
2021/08/05 08:47:11;;;;;;;14.50;10.18;;;;;;;21.07;67.77;99497.31;4987996;28;106464;-65
2021/08/05 08:49:41;;;;;;;11.13;9.60;;;;;;;21.01;67.45;99498.34;4987885;28;106879;-64
2021/08/05 08:52:08;;;;;;;12.03;9.80;;;;;;;20.95;67.33;99502.88;4987569;28;106001;-65
2021/08/05 08:54:40;;;;;;;10.73;9.40;;;;;;;20.98;67.71;99501.56;4985164;28;105986;-65
2021/08/05 08:57:06;;;;;;;12.57;10.68;;;;;;;20.96;67.11;99499.94;4986687;28;106053;-65
2021/08/05 08:59:34;;;;;;;11.10;9.90;;;;;;;21.00;67.56;99499.44;4986450;28;105971;-65
2021/08/05 09:01:59;;;;;;;24.80;18.80;;;;;;;21.08;67.28;99502.47;4986502;28;106181;-65
2021/08/05 09:04:26;;;;;;;13.60;11.05;;;;;;;21.06;67.00;99507.31;4986988;28;106044;-65
2021/08/05 09:06:51;;;;;;;13.43;9.30;;;;;;;21.07;66.82;99500.03;4985888;28;106586;-65
2021/08/05 09:09:16;;;;;;;11.40;10.30;;;;;;;21.17;67.05;99497.41;4986174;28;106109;-65
2021/08/05 09:11:42;;;;;;;10.93;9.63;;;;;;;21.33;66.64;99497.56;4985452;28;106023;-66
2021/08/05 09:14:07;;;;;;;10.35;9.35;;;;;;;21.49;66.66;99491.19;4986545;28;106010;-65
2021/08/05 09:16:33;;;;;;;10.68;9.45;;;;;;;21.63;66.39;99486.97;4985525;28;106375;-66
2021/08/05 09:19:10;;;;;;;8.93;8.02;;;;;;;21.76;66.13;99501.13;4985984;28;106058;-66
2021/08/05 09:21:35;;;;;;;10.15;8.80;;;;;;;21.88;65.81;99504.47;4985770;28;105979;-65
2021/08/05 09:24:07;;;;;;;9.25;8.25;;;;;;;21.85;64.96;99499.56;4987811;28;106112;-67
2021/08/05 09:26:36;;;;;;;9.85;8.68;;;;;;;21.84;64.62;99497.94;4989480;28;106386;-68
2021/08/05 09:29:19;;;;;;;8.40;7.37;;;;;;;21.82;64.21;99489.25;4988564;28;106054;-67
2021/08/05 09:31:57;;;;;;;9.15;7.75;;;;;;;21.93;64.20;99484.72;4988995;28;106283;-67
2021/08/05 09:34:31;;;;;;;8.43;6.95;;;;;;;22.01;63.93;99480.66;4989895;28;105917;-68
2021/08/05 09:37:02;;;;;;;7.03;6.32;;;;;;;22.22;64.00;99476.16;4988539;28;106069;-68
2021/08/05 09:39:30;;;;;;;10.48;6.95;;;;;;;22.43;63.48;99479.78;4988633;28;106111;-69
2021/08/05 09:42:02;;;;;;;11.75;6.50;;;;;;;22.69;62.96;99469.00;4988299;28;106368;-69
2021/08/05 09:44:43;;;;;;;7.75;6.72;;;;;;;22.87;62.09;99464.97;4989712;28;106194;-70
2021/08/05 09:47:13;;;;;;;9.13;6.28;;;;;;;22.91;61.79;99466.06;4989432;28;106436;-69
2021/08/05 09:49:45;;;;;;;8.02;6.03;;;;;;;22.95;61.01;99467.16;4988978;28;106125;-70
2021/08/05 09:52:10;;;;;;;7.68;6.20;;;;;;;23.03;61.10;99460.38;4988835;28;106111;-69
2021/08/05 09:54:48;;;;;;;9.23;6.88;;;;;;;23.23;60.97;99451.44;4989270;28;106151;-66
2021/08/05 09:57:21;;;;;;;10.45;6.85;;;;;;;23.36;60.42;99447.34;4989158;28;106156;-66
2021/08/05 09:59:58;;;;;;;6.88;5.85;;;;;;;23.38;59.51;99443.28;4989200;28;106757;-67
2021/08/05 10:02:25;;;;;;;6.97;5.63;;;;;;;23.31;58.83;99443.56;4989106;28;106131;-66
2021/08/05 10:04:52;;;;;;;6.32;5.63;;;;;;;23.23;59.14;99449.53;4988335;28;106532;-66
2021/08/05 10:07:17;;;;;;;7.82;6.07;;;;;;;23.28;59.02;99449.53;4988979;28;106289;-65
2021/08/05 10:09:44;;;;;;;6.88;6.18;;;;;;;23.29;58.64;99442.19;4988682;28;106455;-65
2021/08/05 10:12:20;;;;;;;8.35;5.90;;;;;;;23.25;58.53;99435.69;4988397;28;106150;-64
2021/08/05 10:14:48;;;;;;;6.93;6.05;;;;;;;23.21;58.27;99435.44;4989193;28;106127;-65
2021/08/05 10:17:15;;;;;;;8.70;6.40;;;;;;;23.06;57.87;99435.38;4988641;28;106198;-65
2021/08/05 10:19:43;;;;;;;10.82;5.85;;;;;;;22.93;57.65;99434.84;4988294;28;106034;-66
2021/08/05 10:22:10;;;;;;;8.63;7.55;;;;;;;22.85;58.13;99435.38;4988241;28;106026;-66
2021/08/05 10:24:43;;;;;;;21.00;16.42;;;;;;;22.71;57.68;99432.38;4989248;28;106403;-67
2021/08/05 10:27:10;;;;;;;8.55;7.07;;;;;;;22.56;57.98;99433.16;4988431;28;106229;-67
2021/08/05 10:29:38;;;;;;;9.45;7.20;;;;;;;22.37;58.10;99432.03;4974099;28;106604;-66
2021/08/05 10:32:06;;;;;;;8.32;6.80;;;;;;;22.15;57.88;99438.44;4983835;28;106612;-67
2021/08/05 10:34:34;;;;;;;9.05;6.53;;;;;;;21.95;58.21;99437.28;4990414;28;105917;-66
2021/08/05 10:37:01;;;;;;;8.23;6.30;;;;;;;21.83;58.68;99435.84;4989712;28;106217;-66
2021/08/05 10:39:28;;;;;;;9.25;6.47;;;;;;;21.67;58.68;99438.47;4989477;28;105917;-65
2021/08/05 10:41:57;;;;;;;9.05;6.60;;;;;;;21.63;59.15;99438.19;4989486;28;105980;-64
2021/08/05 10:44:24;;;;;;;7.43;5.85;;;;;;;21.60;59.18;99433.28;4990734;28;105925;-65
2021/08/05 10:46:50;;;;;;;9.60;6.40;;;;;;;21.53;59.19;99432.72;4990014;28;106266;-66
2021/08/05 10:49:16;;;;;;;9.30;5.93;;;;;;;21.44;59.31;99424.19;4989993;28;106499;-64
2021/08/05 10:51:42;;;;;;;8.23;6.38;;;;;;;21.37;59.29;99428.22;4987956;28;105982;-62
2021/08/05 10:54:08;;;;;;;7.18;6.30;;;;;;;21.25;59.41;99414.88;4990412;28;105951;-63
2021/08/05 10:56:35;;;;;;;9.27;6.65;;;;;;;21.10;59.67;99421.81;4989379;28;106399;-64
2021/08/05 10:59:00;;;;;;;8.93;7.07;;;;;;;20.95;59.68;99427.09;4989323;28;105896;-64
2021/08/05 11:01:47;;;;;;;8.93;7.60;;;;;;;20.77;60.18;99422.88;4989616;28;105834;-64
2021/08/05 11:04:34;;;;;;;10.40;7.63;;;;;;;20.61;60.55;99428.13;4990074;28;106046;-64
2021/08/05 11:07:33;;;;;;;10.50;8.82;;;;;;;20.47;60.93;99416.06;4989608;28;106379;-64
2021/08/05 11:10:16;;;;;;;13.63;9.60;;;;;;;20.40;61.43;99407.31;4989216;28;106019;-66
2021/08/05 11:12:48;;;;;;;11.30;9.40;;;;;;;20.38;61.90;99412.16;4988556;28;105978;-65
2021/08/05 11:15:19;;;;;;;9.18;7.78;;;;;;;20.39;62.46;99409.19;4990250;28;105973;-65
2021/08/05 11:20:42;;;;;;;7.95;6.93;;;;;;;20.75;63.23;99406.88;4983691;28;105936;-65
2021/08/05 11:23:33;;;;;;;8.95;7.10;;;;;;;20.90;62.88;99391.84;4988800;28;106166;-65
2021/08/05 11:25:58;;;;;;;9.23;7.57;;;;;;;21.04;62.89;99392.25;4989523;28;106016;-66
2021/08/05 11:28:24;;;;;;;8.40;7.15;;;;;;;21.16;62.62;99392.03;4989237;28;106334;-65
2021/08/05 11:31:08;;;;;;;7.90;7.10;;;;;;;21.20;62.85;99394.00;4988956;28;106127;-66
2021/08/05 11:33:37;;;;;;;8.98;7.10;;;;;;;21.24;62.60;99388.84;4988979;28;106009;-65
2021/08/05 11:36:16;;;;;;;7.30;6.43;;;;;;;21.23;62.59;99382.63;4989804;28;106197;-65
2021/08/05 11:39:07;;;;;;;8.82;7.07;;;;;;;21.23;62.65;99379.94;4988660;28;106234;-63
2021/08/05 11:41:39;;;;;;;7.88;6.50;;;;;;;21.27;62.62;99375.63;4988257;28;105928;-64
2021/08/05 11:44:23;;;;;;;7.75;6.95;;;;;;;21.36;62.65;99367.00;4988561;28;106281;-64
2021/08/05 11:47:00;;;;;;;8.25;6.75;;;;;;;21.36;62.68;99367.00;4988362;28;106151;-68
2021/08/05 11:49:36;;;;;;;7.05;6.03;;;;;;;21.35;62.72;99363.47;4988643;28;105723;-68
2021/08/05 11:52:10;;;;;;;6.72;6.03;;;;;;;21.33;62.64;99360.22;4988253;28;105983;-67
2021/08/05 11:54:37;;;;;;;8.07;6.30;;;;;;;21.35;62.79;99362.66;4988760;28;106154;-67
2021/08/05 11:57:05;;;;;;;7.88;5.82;;;;;;;21.29;62.74;99368.03;4989171;28;106342;-67
2021/08/05 11:59:38;;;;;;;6.60;6.00;;;;;;;21.21;62.82;99357.69;4988628;28;106263;-70
2021/08/05 12:02:05;;;;;;;8.10;6.32;;;;;;;21.10;63.05;99359.53;4988833;28;106070;-66
2021/08/05 12:04:30;;;;;;;8.07;7.13;;;;;;;20.99;63.24;99367.84;4988597;28;105977;-66
2021/08/05 12:07:21;;;;;;;8.02;6.38;;;;;;;20.88;63.54;99361.53;4989540;28;105952;-66
2021/08/05 12:09:57;;;;;;;8.90;6.68;;;;;;;20.82;63.70;99349.00;4989043;28;106184;-65
2021/08/05 12:12:24;;;;;;;9.35;7.25;;;;;;;20.79;63.98;99347.66;4987152;28;107247;-65
2021/08/05 12:14:51;;;;;;;6.70;6.00;;;;;;;20.74;64.14;99334.88;4988412;28;105956;-65
2021/08/05 12:17:38;;;;;;;8.00;6.55;;;;;;;20.81;64.43;99328.44;4988926;28;106033;-66
2021/08/05 12:20:13;;;;;;;8.00;6.03;;;;;;;20.88;64.70;99334.47;4988375;28;106075;-67
2021/08/05 12:22:42;;;;;;;6.72;6.00;;;;;;;20.87;64.56;99336.34;4988007;28;105961;-65
2021/08/05 12:25:23;;;;;;;6.97;5.75;;;;;;;20.78;64.80;99338.72;4988125;28;105778;-66
2021/08/05 12:27:54;;;;;;;7.90;6.32;;;;;;;20.76;64.49;99330.03;4988555;28;105961;-66
2021/08/05 12:30:19;;;;;;;6.82;6.03;;;;;;;20.68;64.74;99333.22;4988574;28;105973;-68
2021/08/05 12:33:04;;;;;;;8.60;6.20;;;;;;;20.65;64.98;99324.78;4986828;28;108656;-66
2021/08/05 12:35:30;;;;;;;7.53;5.88;;;;;;;20.72;65.46;99317.28;4988057;28;106036;-65
2021/08/05 12:38:10;;;;;;;8.68;6.68;;;;;;;20.71;65.24;99318.34;4988870;28;105892;-67
2021/08/05 12:40:39;;;;;;;9.60;6.22;;;;;;;20.70;65.12;99317.53;4987685;28;106239;-63
2021/08/05 12:43:08;;;;;;;7.70;6.27;;;;;;;20.67;65.22;99311.78;4987301;28;105979;-66
2021/08/05 12:45:36;;;;;;;6.78;6.07;;;;;;;20.59;65.03;99311.19;4987347;28;106212;-65
2021/08/05 12:48:03;;;;;;;7.55;6.75;;;;;;;20.52;65.16;99305.19;4988753;28;105755;-64
2021/08/05 12:50:30;;;;;;;7.80;6.82;;;;;;;20.53;65.36;99304.13;4987904;28;106141;-64
2021/08/05 12:52:55;;;;;;;8.60;6.72;;;;;;;20.53;65.49;99301.41;4987760;28;106651;-63
2021/08/05 12:55:21;;;;;;;8.82;7.22;;;;;;;20.55;65.47;99303.84;4986494;28;106057;-63
2021/08/05 13:52:55;;;;;;;12.65;10.23;;;;;;;18.47;67.55;99271.81;5012279;28;106123;-64
2021/08/05 13:55:22;;;;;;;11.05;8.63;;;;;;;18.46;68.10;99270.16;5003564;28;106080;-63
2021/08/05 13:57:48;;;;;;;14.05;9.30;;;;;;;18.48;68.42;99267.22;5003698;28;106410;-63
2021/08/05 14:00:14;;;;;;;11.32;9.82;;;;;;;18.52;68.97;99271.06;4996373;28;106073;-65
2021/08/05 14:02:41;;;;;;;10.82;9.70;;;;;;;18.55;69.27;99263.31;4984009;28;106292;-66
2021/08/05 14:05:08;;;;;;;10.00;8.93;;;;;;;18.52;69.24;99263.81;4998282;28;105993;-65
2021/08/05 14:07:34;;;;;;;11.32;9.45;;;;;;;18.54;69.47;99261.66;5003806;28;106150;-66
2021/08/05 14:10:00;;;;;;;13.63;9.88;;;;;;;18.59;69.75;99263.66;5003194;28;106109;-65
2021/08/05 14:12:26;;;;;;;11.10;10.00;;;;;;;18.58;69.56;99252.03;5003542;28;106145;-66
2021/08/05 14:14:51;;;;;;;9.43;8.32;;;;;;;18.60;69.80;99258.00;5003319;28;106088;-65
2021/08/05 14:17:18;;;;;;;10.65;9.55;;;;;;;18.63;69.83;99256.69;5003541;28;106162;-66
2021/08/05 14:19:43;;;;;;;11.35;9.35;;;;;;;18.66;70.25;99255.38;5003503;28;106657;-65
2021/08/05 14:22:10;;;;;;;10.02;9.02;;;;;;;18.69;70.17;99257.59;5001635;28;107043;-65
2021/08/05 14:24:35;;;;;;;10.52;8.45;;;;;;;18.71;70.30;99256.28;5004445;28;106042;-65
2021/08/05 14:27:00;;;;;;;11.77;9.30;;;;;;;18.70;70.21;99253.81;4995450;28;106909;-66
2021/08/05 14:29:26;;;;;;;10.18;8.65;;;;;;;18.70;70.31;99257.34;4986041;28;105912;-66
2021/08/05 14:31:52;;;;;;;12.32;9.20;;;;;;;18.71;70.54;99253.59;4985084;28;105938;-65
2021/08/05 14:34:17;;;;;;;9.65;8.70;;;;;;;18.73;70.48;99254.16;4985821;28;105882;-65
2021/08/05 14:36:43;;;;;;;9.13;8.05;;;;;;;18.70;70.62;99253.81;4985169;28;105708;-64
2021/08/05 14:39:10;;;;;;;9.60;8.02;;;;;;;18.72;70.79;99247.09;4984696;28;106504;-65
2021/08/05 14:41:36;;;;;;;10.02;8.90;;;;;;;18.78;70.74;99253.38;4984362;28;106155;-64
2021/08/05 14:44:10;;;;;;;11.90;9.20;;;;;;;18.75;70.60;99253.91;4985407;28;105923;-65
2021/08/05 14:46:37;;;;;;;9.50;8.25;;;;;;;18.76;70.96;99252.84;4984901;28;105898;-65
2021/08/05 14:49:03;;;;;;;9.10;8.20;;;;;;;18.79;70.78;99249.63;4984663;28;106450;-64
2021/08/05 14:51:29;;;;;;;11.38;9.20;;;;;;;18.81;70.87;99252.91;4983421;28;105940;-65
2021/08/05 14:53:54;;;;;;;10.27;8.15;;;;;;;18.82;70.98;99253.72;4985445;28;106168;-65
2021/08/05 14:56:20;;;;;;;9.50;8.45;;;;;;;18.84;71.18;99254.31;4984738;28;106180;-65
2021/08/05 14:58:45;;;;;;;11.90;7.50;;;;;;;18.83;70.98;99249.97;4983040;28;106683;-66
2021/08/05 15:01:11;;;;;;;10.27;8.02;;;;;;;18.81;71.05;99255.63;4984572;28;105887;-66
2021/08/05 15:03:36;;;;;;;9.27;7.38;;;;;;;18.77;71.06;99246.38;4975685;28;105690;-65
2021/08/05 15:06:04;;;;;;;10.85;8.25;;;;;;;18.76;71.25;99253.63;4971532;28;105792;-64
2021/08/05 15:08:30;;;;;;;9.32;8.25;;;;;;;18.75;71.20;99253.91;4971179;28;105915;-65
2021/08/05 15:10:56;;;;;;;10.38;7.97;;;;;;;18.68;70.87;99256.75;4971077;28;106309;-65
2021/08/05 15:13:21;;;;;;;8.85;7.95;;;;;;;18.61;71.23;99251.53;4971905;28;105920;-66
2021/08/05 15:15:46;;;;;;;9.93;8.02;;;;;;;18.60;71.55;99249.91;4971142;28;105920;-67
2021/08/05 15:18:12;;;;;;;12.50;8.75;;;;;;;18.56;71.38;99246.06;4969041;28;106117;-66
2021/08/05 15:20:37;;;;;;;10.57;8.30;;;;;;;18.51;71.50;99246.00;4970842;28;105972;-65
2021/08/05 15:23:03;;;;;;;15.30;8.60;;;;;;;18.46;71.20;99254.00;4971548;28;105954;-64
2021/08/05 15:25:28;;;;;;;8.95;8.00;;;;;;;18.43;71.52;99246.41;4971060;28;105992;-64
2021/08/05 15:27:53;;;;;;;9.80;8.30;;;;;;;18.41;71.63;99253.91;4970506;28;105951;-65
2021/08/05 15:30:19;;;;;;;9.48;8.25;;;;;;;18.35;71.77;99254.91;4970801;28;106033;-65
2021/08/05 15:32:45;;;;;;;10.68;7.88;;;;;;;18.32;71.78;99252.69;4971155;28;106404;-65
2021/08/05 15:35:10;;;;;;;8.82;7.93;;;;;;;18.27;71.73;99253.41;4971094;28;106238;-65
2021/08/05 15:37:36;;;;;;;9.60;8.25;;;;;;;18.24;71.96;99252.00;4970545;28;105955;-65
2021/08/05 15:40:01;;;;;;;8.45;7.30;;;;;;;18.21;72.08;99255.19;4970534;28;106168;-66
2021/08/05 15:42:27;;;;;;;8.77;7.88;;;;;;;18.17;72.10;99248.66;4971200;28;105677;-65
2021/08/05 15:44:52;;;;;;;9.63;8.07;;;;;;;18.14;72.42;99251.03;4970906;28;105716;-65
2021/08/05 15:47:17;;;;;;;11.02;8.23;;;;;;;18.09;72.09;99254.44;4970436;28;105717;-65
2021/08/05 15:49:43;;;;;;;9.77;8.02;;;;;;;18.07;72.45;99251.16;4970358;28;105883;-65
2021/08/05 15:52:08;;;;;;;8.50;7.70;;;;;;;18.07;72.16;99251.16;4970787;28;106115;-65
2021/08/05 15:54:34;;;;;;;8.80;7.90;;;;;;;18.05;72.35;99253.31;4970641;28;106555;-65
2021/08/05 15:56:59;;;;;;;9.38;7.32;;;;;;;18.01;72.69;99242.19;4970571;28;105949;-64
2021/08/05 15:59:24;;;;;;;8.85;7.93;;;;;;;18.01;72.59;99241.38;4970031;28;106529;-66
2021/08/05 16:01:50;;;;;;;10.43;8.43;;;;;;;18.04;72.57;99238.19;4971252;28;106632;-65
2021/08/05 16:04:15;;;;;;;10.27;8.73;;;;;;;18.02;72.62;99243.03;4970488;28;106242;-65
2021/08/05 16:06:41;;;;;;;9.95;8.52;;;;;;;18.01;72.47;99234.09;4970282;28;106031;-65
2021/08/05 16:09:06;;;;;;;8.98;7.90;;;;;;;17.96;72.59;99233.19;4970183;28;106256;-65
2021/08/05 16:11:33;;;;;;;10.48;8.35;;;;;;;17.93;72.69;99240.72;4970457;28;106430;-64
2021/08/05 16:13:59;;;;;;;11.13;8.75;;;;;;;17.93;72.84;99239.88;4969455;28;106205;-64
2021/08/05 16:16:24;;;;;;;13.10;9.05;;;;;;;17.87;72.70;99235.44;4969044;28;106001;-64
2021/08/05 16:18:49;;;;;;;11.25;8.55;;;;;;;17.86;72.91;99236.50;4969799;28;105990;-64
2021/08/05 16:21:15;;;;;;;10.63;8.30;;;;;;;17.83;72.81;99245.88;4968714;28;106079;-64
2021/08/05 16:23:40;;;;;;;15.02;8.40;;;;;;;17.81;72.95;99241.78;4969974;28;106310;-64
2021/08/05 16:26:06;;;;;;;11.63;8.68;;;;;;;17.77;72.88;99244.97;4967905;28;108044;-64
2021/08/05 16:28:33;;;;;;;10.55;8.20;;;;;;;17.71;72.97;99242.41;4969741;28;106002;-65
2021/08/05 16:30:59;;;;;;;12.10;8.35;;;;;;;17.69;73.36;99244.53;4970304;28;105997;-64
2021/08/05 16:33:25;;;;;;;12.07;9.07;;;;;;;17.69;73.29;99241.84;4970013;28;106354;-65
2021/08/05 16:35:51;;;;;;;11.77;8.90;;;;;;;17.64;73.19;99249.81;4968773;28;106031;-65
2021/08/05 16:38:17;;;;;;;9.77;8.77;;;;;;;17.57;73.34;99248.06;4969508;28;105879;-64
2021/08/05 16:40:42;;;;;;;11.45;8.95;;;;;;;17.56;73.54;99246.47;4969179;28;105924;-64
2021/08/05 16:43:08;;;;;;;10.65;8.80;;;;;;;17.57;73.69;99247.28;4969601;28;106195;-64
2021/08/05 16:45:35;;;;;;;10.88;8.43;;;;;;;17.56;73.76;99245.63;4969456;28;106878;-64
2021/08/05 16:48:01;;;;;;;9.93;8.38;;;;;;;17.54;73.73;99253.94;4967382;28;107801;-65
2021/08/05 16:50:26;;;;;;;9.00;8.05;;;;;;;17.51;73.47;99248.22;4970222;28;105831;-65
2021/08/05 16:52:52;;;;;;;9.82;8.05;;;;;;;17.44;73.77;99248.34;4969427;28;106216;-68
2021/08/05 16:55:17;;;;;;;9.48;8.20;;;;;;;17.42;73.87;99245.09;4969666;28;105889;-64
2021/08/05 16:57:43;;;;;;;8.77;7.85;;;;;;;17.37;74.04;99243.13;4969189;28;105855;-66